Time;durP1;ratioP1;P1;durP2;ratioP2;P2;SDS_P1;SDS_P2;PMS_P1;PMS_P2;Temp;Humidity;BMP_temperature;BMP_pressure;BME280_temperature;BME280_humidity;BME280_pressure;Samples;Min_cycle;Max_cycle;Signal;HPM_P1;HPM_P2
2023/04/19 00:00:48;;;;;;;6.23;5.93;;;;;;;6.72;100.00;103317.75;5072821;28;20426;-43
2023/04/19 00:03:16;;;;;;;6.30;5.70;;;;;;;6.71;100.00;103324.06;5069426;28;20464;-50
2023/04/19 00:05:44;;;;;;;6.60;6.20;;;;;;;6.69;100.00;103320.63;5072442;28;20426;-46
2023/04/19 00:08:13;;;;;;;14.23;6.80;;;;;;;6.69;100.00;103317.97;5072117;28;20503;-44
2023/04/19 00:10:41;;;;;;;8.20;7.10;;;;;;;6.68;100.00;103316.31;5072364;28;20437;-50
2023/04/19 00:13:09;;;;;;;6.17;5.60;;;;;;;6.69;100.00;103321.50;5071614;28;20455;-44
2023/04/19 00:15:37;;;;;;;6.77;6.37;;;;;;;6.71;100.00;103315.25;5072041;28;20936;-43
2023/04/19 00:18:06;;;;;;;10.73;6.63;;;;;;;6.69;100.00;103320.63;5072331;28;20482;-44
2023/04/19 00:20:33;;;;;;;7.50;6.90;;;;;;;6.67;100.00;103318.09;5072549;28;20430;-43
2023/04/19 00:23:02;;;;;;;6.87;6.40;;;;;;;6.66;100.00;103315.56;5071754;28;20451;-43
2023/04/19 00:25:33;;;;;;;8.13;6.37;;;;;;;6.63;100.00;103316.63;5072906;28;20470;-44
2023/04/19 00:28:02;;;;;;;6.90;6.37;;;;;;;6.60;100.00;103318.66;5072410;28;20466;-43
2023/04/19 00:30:30;;;;;;;7.33;6.73;;;;;;;6.59;100.00;103323.13;5075636;28;20819;-45
2023/04/19 00:32:58;;;;;;;6.90;6.40;;;;;;;6.57;100.00;103316.22;5076143;28;20462;-45
2023/04/19 00:35:26;;;;;;;10.13;6.70;;;;;;;6.54;100.00;103319.09;5076652;28;20492;-43
2023/04/19 00:37:53;;;;;;;6.93;6.53;;;;;;;6.50;100.00;103310.50;5076526;28;20492;-48
2023/04/19 00:40:21;;;;;;;7.33;6.70;;;;;;;6.49;100.00;103314.09;5076304;28;20430;-46
2023/04/19 00:42:50;;;;;;;7.17;6.40;;;;;;;6.46;100.00;103314.31;5076292;28;20527;-49
2023/04/19 00:45:18;;;;;;;8.50;6.80;;;;;;;6.42;100.00;103307.53;5076017;28;20470;-44
2023/04/19 00:47:45;;;;;;;8.70;6.10;;;;;;;6.44;100.00;103310.94;5076913;28;20437;-45
2023/04/19 00:50:13;;;;;;;8.00;7.30;;;;;;;6.43;100.00;103316.31;5076331;28;20429;-44
2023/04/19 00:52:41;;;;;;;6.87;6.27;;;;;;;6.41;100.00;103310.28;5076133;28;20481;-44
2023/04/19 00:55:10;;;;;;;7.97;7.30;;;;;;;6.40;100.00;103311.25;5072156;28;21170;-43
2023/04/19 00:57:38;;;;;;;7.00;6.50;;;;;;;6.42;100.00;103314.66;5076148;28;20919;-47
2023/04/19 01:00:09;;;;;;;8.50;7.00;;;;;;;6.42;100.00;103317.31;5076205;28;20521;-44
2023/04/19 01:02:36;;;;;;;7.77;7.20;;;;;;;6.41;100.00;103319.09;5076281;28;20457;-49
2023/04/19 01:05:05;;;;;;;7.97;7.37;;;;;;;6.41;100.00;103319.09;5072002;28;20536;-43
2023/04/19 01:07:33;;;;;;;6.93;6.23;;;;;;;6.39;100.00;103322.81;5076111;28;20434;-46
2023/04/19 01:10:01;;;;;;;7.20;6.70;;;;;;;6.36;100.00;103318.56;5075102;28;20430;-43
2023/04/19 01:12:28;;;;;;;8.07;7.40;;;;;;;6.33;100.00;103318.75;5074931;28;20481;-47
2023/04/19 01:14:56;;;;;;;7.87;6.60;;;;;;;6.32;100.00;103321.53;5075050;28;20462;-43
2023/04/19 01:17:26;;;;;;;7.63;7.20;;;;;;;6.30;100.00;103316.31;5075721;28;20484;-46
2023/04/19 01:20:00;;;;;;;10.37;7.73;;;;;;;6.28;100.00;103314.75;5075843;28;20515;-45
2023/04/19 01:22:30;;;;;;;7.90;7.40;;;;;;;6.25;100.00;103321.09;5075870;28;20565;-47
2023/04/19 01:24:58;;;;;;;8.53;7.83;;;;;;;6.22;100.00;103316.00;5075253;28;20846;-43
2023/04/19 01:27:26;;;;;;;8.10;7.40;;;;;;;6.17;100.00;103310.19;5076085;28;20438;-46
2023/04/19 01:29:53;;;;;;;8.73;7.20;;;;;;;6.17;100.00;103312.84;5076020;28;20958;-43
2023/04/19 01:32:21;;;;;;;8.53;7.93;;;;;;;6.12;100.00;103323.75;5075463;28;20553;-43
2023/04/19 01:34:50;;;;;;;8.67;7.97;;;;;;;6.13;100.00;103316.66;5072287;28;20462;-45
2023/04/19 01:37:18;;;;;;;9.30;8.00;;;;;;;6.10;100.00;103312.41;5075847;28;20442;-45
2023/04/19 01:39:47;;;;;;;8.70;7.80;;;;;;;6.08;100.00;103319.63;5076125;28;20434;-45
2023/04/19 01:42:15;;;;;;;9.50;8.60;;;;;;;6.08;100.00;103316.97;5075819;28;20447;-43
2023/04/19 01:44:42;;;;;;;9.73;7.80;;;;;;;6.08;100.00;103322.28;5075202;28;20470;-46
2023/04/19 01:47:10;;;;;;;10.73;9.57;;;;;;;6.07;100.00;103322.38;5075889;28;20849;-45
2023/04/19 01:49:38;;;;;;;11.23;8.83;;;;;;;6.06;100.00;103323.34;5075978;28;20452;-43
2023/04/19 01:52:05;;;;;;;8.70;7.90;;;;;;;6.04;100.00;103320.78;5075509;28;20454;-45
2023/04/19 01:54:33;;;;;;;9.93;9.10;;;;;;;6.03;100.00;103316.41;5075126;28;20458;-46
2023/04/19 01:57:02;;;;;;;8.40;7.77;;;;;;;6.06;100.00;103316.22;5075266;28;20432;-45
2023/04/19 01:59:30;;;;;;;9.50;8.50;;;;;;;6.08;100.00;103316.13;5075667;28;20461;-43
2023/04/19 02:01:57;;;;;;;10.60;8.17;;;;;;;6.09;100.00;103310.72;5075325;28;20457;-43
2023/04/19 02:04:25;;;;;;;9.73;8.17;;;;;;;6.07;100.00;103302.03;5074653;28;20454;-43
2023/04/19 02:06:53;;;;;;;9.97;8.97;;;;;;;6.05;100.00;103306.59;5075240;28;20784;-45
2023/04/19 02:09:21;;;;;;;8.50;7.80;;;;;;;6.01;100.00;103305.09;5075478;28;20819;-45
2023/04/19 02:11:48;;;;;;;11.50;8.50;;;;;;;6.02;100.00;103311.25;5074783;28;20521;-44
2023/04/19 02:14:17;;;;;;;14.33;8.50;;;;;;;5.98;100.00;103307.94;5074699;28;20425;-45
2023/04/19 02:16:45;;;;;;;9.77;8.60;;;;;;;5.97;100.00;103300.13;5074908;28;20462;-44
2023/04/19 02:19:13;;;;;;;11.07;8.47;;;;;;;5.96;100.00;103299.28;5075095;28;20784;-46
2023/04/19 02:21:41;;;;;;;9.37;8.43;;;;;;;5.93;100.00;103302.13;5074583;28;20437;-46
2023/04/19 02:24:08;;;;;;;8.20;7.40;;;;;;;5.91;100.00;103298.72;5073894;28;20426;-43
2023/04/19 02:26:36;;;;;;;7.97;7.47;;;;;;;5.89;100.00;103297.13;5074853;28;20870;-45
2023/04/19 02:29:03;;;;;;;7.93;7.23;;;;;;;5.85;100.00;103288.56;5074852;28;21000;-47
2023/04/19 02:31:36;;;;;;;9.17;8.27;;;;;;;5.85;100.00;103290.34;5074141;28;20484;-46
2023/04/19 02:34:04;;;;;;;8.90;8.00;;;;;;;5.85;100.00;103296.50;5074931;28;20427;-43
2023/04/19 02:36:32;;;;;;;8.80;7.70;;;;;;;5.84;100.00;103281.53;5074329;28;20435;-44
2023/04/19 02:39:00;;;;;;;9.83;8.63;;;;;;;5.80;100.00;103290.63;5074508;28;20434;-44
2023/04/19 02:41:27;;;;;;;9.23;8.43;;;;;;;5.79;100.00;103288.09;5073874;28;20435;-43
2023/04/19 02:43:55;;;;;;;9.57;8.53;;;;;;;5.76;100.00;103285.66;5074952;28;20426;-43
2023/04/19 02:46:23;;;;;;;8.17;7.33;;;;;;;5.75;100.00;103283.94;5074130;28;20564;-45
2023/04/19 02:48:52;;;;;;;8.73;8.03;;;;;;;5.75;100.00;103287.44;5075020;28;20521;-44
2023/04/19 02:51:19;;;;;;;8.80;8.10;;;;;;;5.77;100.00;103284.69;5074080;28;20999;-45
2023/04/19 02:53:47;;;;;;;8.90;8.00;;;;;;;5.75;100.00;103283.94;5074300;28;20819;-44
2023/04/19 02:56:15;;;;;;;8.00;7.40;;;;;;;5.77;100.00;103276.75;5073577;28;20469;-43
2023/04/19 02:58:43;;;;;;;10.33;9.10;;;;;;;5.75;100.00;103271.56;5073987;28;20965;-43
2023/04/19 03:01:10;;;;;;;8.80;8.00;;;;;;;5.79;100.00;103285.44;5073830;28;20438;-45
2023/04/19 03:03:39;;;;;;;9.03;8.40;;;;;;;5.85;100.00;103277.09;5073806;28;20537;-49
2023/04/19 03:06:08;;;;;;;10.90;10.00;;;;;;;5.89;100.00;103268.84;5073449;28;20481;-45
2023/04/19 03:08:36;;;;;;;9.17;8.57;;;;;;;5.94;100.00;103268.56;5074304;28;20431;-43
2023/04/19 03:11:04;;;;;;;9.13;8.37;;;;;;;5.97;100.00;103263.88;5074558;28;20430;-45
2023/04/19 03:13:31;;;;;;;8.87;8.07;;;;;;;5.99;100.00;103266.44;5073586;28;21004;-43
2023/04/19 03:15:59;;;;;;;7.90;7.30;;;;;;;5.99;100.00;103258.47;5072674;28;20470;-45
2023/04/19 03:18:27;;;;;;;8.63;7.50;;;;;;;5.97;100.00;103265.69;5073206;28;20473;-49
2023/04/19 03:20:54;;;;;;;8.00;7.37;;;;;;;5.93;100.00;103261.53;5073574;28;20430;-43
2023/04/19 03:23:23;;;;;;;7.23;6.80;;;;;;;5.90;100.00;103253.81;5074037;28;20454;-46
2023/04/19 03:25:51;;;;;;;7.87;7.23;;;;;;;5.86;100.00;103247.03;5073488;28;20481;-43
2023/04/19 03:28:19;;;;;;;16.07;8.47;;;;;;;5.82;100.00;103253.47;5074039;28;20430;-45
2023/04/19 03:30:47;;;;;;;8.17;7.67;;;;;;;5.74;100.00;103246.03;5074215;28;20484;-45
2023/04/19 03:33:15;;;;;;;7.33;6.83;;;;;;;5.70;100.00;103243.72;5073103;28;20462;-45
2023/04/19 03:35:43;;;;;;;8.20;7.73;;;;;;;5.66;100.00;103247.50;5073546;28;20462;-45
2023/04/19 03:38:11;;;;;;;7.13;6.63;;;;;;;5.61;100.00;103253.13;5073869;28;20438;-44
2023/04/19 03:40:40;;;;;;;8.23;7.67;;;;;;;5.63;100.00;103255.66;5074100;28;20441;-46
2023/04/19 03:43:08;;;;;;;8.00;7.43;;;;;;;5.63;100.00;103247.72;5073713;28;20450;-45
2023/04/19 03:45:35;;;;;;;7.40;6.77;;;;;;;5.61;100.00;103244.31;5078988;23;20833;-47
2023/04/19 03:48:03;;;;;;;8.60;7.90;;;;;;;5.57;100.00;103246.31;5071603;28;20422;-46
2023/04/19 03:50:31;;;;;;;8.07;7.33;;;;;;;5.57;100.00;103246.31;5071704;28;20430;-45
2023/04/19 03:52:59;;;;;;;8.03;7.53;;;;;;;5.56;100.00;103247.28;5071368;28;20430;-48
2023/04/19 03:55:27;;;;;;;9.03;8.27;;;;;;;5.53;100.00;103243.03;5071007;28;20516;-49
2023/04/19 03:57:56;;;;;;;7.90;7.30;;;;;;;5.54;100.00;103243.88;5071506;28;20930;-45
2023/04/19 04:00:23;;;;;;;9.13;8.43;;;;;;;5.51;100.00;103244.94;5071554;28;20429;-47
2023/04/19 04:02:51;;;;;;;9.20;8.40;;;;;;;5.50;100.00;103243.25;5071470;28;20830;-50
2023/04/19 04:05:19;;;;;;;9.23;8.53;;;;;;;5.52;100.00;103248.44;5075124;28;20466;-48
2023/04/19 04:07:47;;;;;;;9.10;8.30;;;;;;;5.53;100.00;103250.13;5075798;28;20473;-45
2023/04/19 04:10:15;;;;;;;8.00;7.50;;;;;;;5.55;100.00;103242.94;5075665;28;20457;-45
2023/04/19 04:12:42;;;;;;;9.87;7.30;;;;;;;5.56;100.00;103247.28;5075468;28;20799;-46
2023/04/19 04:15:12;;;;;;;7.93;7.33;;;;;;;5.59;100.00;103239.13;5075052;28;20599;-48
2023/04/19 04:17:39;;;;;;;7.67;7.07;;;;;;;5.65;100.00;103251.94;5075000;28;20450;-50
2023/04/19 04:20:10;;;;;;;7.57;7.07;;;;;;;5.68;100.00;103241.16;5075269;28;20487;-46
2023/04/19 04:22:40;;;;;;;8.30;7.80;;;;;;;5.73;100.00;103239.06;5075390;28;20430;-51
2023/04/19 04:25:09;;;;;;;11.73;7.10;;;;;;;5.83;100.00;103241.91;5074865;28;20461;-47
2023/04/19 04:27:36;;;;;;;6.93;6.53;;;;;;;5.93;100.00;103241.22;5074957;28;20611;-48
2023/04/19 04:30:05;;;;;;;7.73;7.03;;;;;;;6.12;100.00;103235.50;5075168;28;20461;-49
2023/04/19 04:32:35;;;;;;;7.63;7.00;;;;;;;6.32;100.00;103242.03;5074683;28;20519;-46
2023/04/19 04:35:02;;;;;;;7.47;6.47;;;;;;;6.54;100.00;103239.56;5073293;28;20832;-46
2023/04/19 04:37:32;;;;;;;7.23;6.50;;;;;;;6.67;100.00;103232.41;5075097;28;20450;-48
2023/04/19 04:40:00;;;;;;;6.90;6.40;;;;;;;6.86;100.00;103242.53;5075089;28;20469;-45
2023/04/19 04:42:30;;;;;;;7.00;6.40;;;;;;;6.96;100.00;103232.97;5074640;28;20500;-50
2023/04/19 04:45:00;;;;;;;9.50;7.00;;;;;;;7.07;100.00;103235.66;5074181;28;20454;-46
2023/04/19 04:47:31;;;;;;;7.37;6.97;;;;;;;7.12;100.00;103229.06;5074312;28;20470;-48
2023/04/19 04:50:01;;;;;;;8.27;7.47;;;;;;;7.14;100.00;103228.91;5074742;28;20963;-48
2023/04/19 04:52:29;;;;;;;6.80;6.40;;;;;;;7.32;100.00;103235.50;5074449;28;20426;-44
2023/04/19 04:54:56;;;;;;;6.70;6.40;;;;;;;7.94;100.00;103229.91;5073336;28;21002;-46
2023/04/19 04:57:24;;;;;;;6.90;6.60;;;;;;;8.65;100.00;103224.22;5074477;28;20446;-50
2023/04/19 04:59:52;;;;;;;6.90;6.23;;;;;;;9.16;100.00;103221.78;5074479;28;20441;-43
2023/04/19 05:02:21;;;;;;;7.27;6.67;;;;;;;9.68;100.00;103213.75;5074539;28;20509;-43
2023/04/19 05:04:49;;;;;;;6.50;6.10;;;;;;;10.32;100.00;103214.38;5074013;28;20458;-44
2023/04/19 05:07:18;;;;;;;6.73;6.27;;;;;;;10.51;100.00;103219.78;5074387;28;21093;-44
2023/04/19 05:09:45;;;;;;;6.50;5.90;;;;;;;10.92;100.00;103208.06;5074431;28;20441;-49
2023/04/19 05:12:13;;;;;;;5.80;5.50;;;;;;;11.16;100.00;103225.50;5073991;28;20434;-45
2023/04/19 05:14:41;;;;;;;6.13;5.73;;;;;;;11.26;100.00;103229.03;5073408;28;20975;-46
2023/04/19 05:17:08;;;;;;;5.67;5.30;;;;;;;11.55;99.00;103216.50;5074007;28;20499;-45
2023/04/19 05:19:36;;;;;;;6.50;6.10;;;;;;;11.72;91.63;103221.13;5074273;28;20430;-45
2023/04/19 05:22:03;;;;;;;6.63;5.90;;;;;;;11.79;87.94;103221.41;5073933;28;20438;-50
2023/04/19 05:24:32;;;;;;;6.07;5.60;;;;;;;11.91;89.94;103218.41;5073547;28;20454;-48
2023/04/19 05:27:00;;;;;;;5.30;5.00;;;;;;;12.28;85.10;103231.78;5074074;28;20473;-43
2023/04/19 05:29:28;;;;;;;5.57;5.23;;;;;;;12.25;83.77;103233.91;5074101;28;20431;-48
2023/04/19 05:31:57;;;;;;;5.77;5.50;;;;;;;12.41;84.06;103242.16;5073974;28;20525;-50
2023/04/19 05:34:25;;;;;;;6.00;5.60;;;;;;;12.55;78.68;103238.97;5073435;28;20433;-51
2023/04/19 05:36:52;;;;;;;5.43;5.20;;;;;;;12.68;79.03;103231.44;5073837;28;20544;-44
2023/04/19 05:39:20;;;;;;;6.80;6.40;;;;;;;12.00;80.63;103230.91;5074189;28;20961;-47
2023/04/19 05:41:49;;;;;;;5.17;4.87;;;;;;;12.68;80.23;103223.41;5073779;28;20435;-44
2023/04/19 05:44:17;;;;;;;5.33;5.13;;;;;;;12.94;77.20;103228.88;5072631;28;20430;-53
2023/04/19 05:46:44;;;;;;;5.83;5.33;;;;;;;13.03;76.74;103231.47;5073446;28;21204;-48
2023/04/19 05:49:12;;;;;;;5.67;5.30;;;;;;;13.45;73.25;103229.06;5073746;28;20433;-46
2023/04/19 05:51:40;;;;;;;5.07;4.77;;;;;;;13.76;70.19;103221.41;5073310;28;20437;-47
2023/04/19 05:54:11;;;;;;;4.80;4.50;;;;;;;13.86;66.91;103214.94;5073146;28;20782;-44
2023/04/19 05:56:38;;;;;;;5.13;4.83;;;;;;;13.85;66.55;103215.09;5073679;28;20810;-46
2023/04/19 05:59:10;;;;;;;5.00;4.70;;;;;;;13.62;66.08;103230.84;5073475;28;20994;-45
2023/04/19 06:01:38;;;;;;;5.63;5.13;;;;;;;13.55;63.33;103216.41;5073137;28;20525;-48
2023/04/19 06:04:05;;;;;;;6.20;5.57;;;;;;;13.70;66.43;103222.03;5073169;28;20462;-48
2023/04/19 06:06:33;;;;;;;5.37;5.07;;;;;;;13.53;63.64;103228.28;5073108;28;20525;-46
2023/04/19 06:09:01;;;;;;;6.30;5.90;;;;;;;13.73;64.46;103238.66;5073395;28;20430;-48
2023/04/19 06:11:30;;;;;;;5.93;5.63;;;;;;;13.55;62.73;103237.00;5073031;28;20436;-45
2023/04/19 06:14:12;;;;;;;5.57;5.20;;;;;;;12.73;63.52;103234.50;5072740;28;20525;-49
2023/04/19 06:16:40;;;;;;;5.73;5.43;;;;;;;13.04;65.05;103243.03;5072897;28;20448;-43
2023/04/19 06:19:07;;;;;;;5.60;5.20;;;;;;;13.31;63.79;103240.34;5073259;28;20434;-50
2023/04/19 06:21:35;;;;;;;6.10;5.80;;;;;;;13.67;62.62;103236.63;5073193;28;20433;-47
2023/04/19 06:24:03;;;;;;;6.40;5.80;;;;;;;13.55;65.42;103243.22;5073120;28;20434;-50
2023/04/19 06:26:31;;;;;;;6.10;5.80;;;;;;;13.22;63.76;103235.88;5071428;28;20458;-46
2023/04/19 06:28:59;;;;;;;7.73;5.67;;;;;;;13.40;63.16;103231.38;5072484;28;20474;-48
2023/04/19 06:31:28;;;;;;;6.70;6.30;;;;;;;13.65;63.82;103238.59;5072419;28;20541;-45
2023/04/19 06:33:55;;;;;;;5.70;5.40;;;;;;;13.46;63.58;103230.75;5072981;28;20434;-48
2023/04/19 06:36:23;;;;;;;7.23;6.63;;;;;;;13.76;65.35;103237.50;5072091;28;20843;-47
2023/04/19 06:38:51;;;;;;;9.73;6.80;;;;;;;13.90;62.19;103241.44;5072546;28;20426;-53
2023/04/19 06:41:18;;;;;;;6.57;6.07;;;;;;;14.09;62.45;103241.25;5072825;28;20444;-46
2023/04/19 06:43:46;;;;;;;6.50;6.07;;;;;;;14.15;62.98;103227.19;5072415;28;20434;-43
2023/04/19 06:46:14;;;;;;;7.00;6.60;;;;;;;14.25;61.93;103214.47;5072111;28;20468;-50
2023/04/19 06:48:43;;;;;;;6.30;6.00;;;;;;;14.41;61.93;103228.00;5072643;28;20469;-47
2023/04/19 06:51:11;;;;;;;6.17;5.57;;;;;;;14.30;61.12;103233.63;5072382;28;20429;-47
2023/04/19 06:53:39;;;;;;;6.30;5.80;;;;;;;14.08;62.79;103218.09;5072352;28;20437;-49
2023/04/19 06:56:07;;;;;;;5.97;5.63;;;;;;;14.17;59.81;103211.75;5071582;28;20470;-46
2023/04/19 06:58:35;;;;;;;5.53;5.17;;;;;;;14.02;59.90;103249.06;5072141;28;20529;-50
2023/04/19 07:01:04;;;;;;;5.50;5.10;;;;;;;14.00;57.51;103231.47;5072182;28;20430;-52
2023/04/19 07:03:32;;;;;;;6.20;5.73;;;;;;;14.00;59.73;103237.66;5072188;28;20438;-50
2023/04/19 07:06:01;;;;;;;5.07;4.87;;;;;;;14.19;57.38;103229.38;5071592;28;21048;-47
2023/04/19 07:08:29;;;;;;;5.37;5.07;;;;;;;14.00;57.99;103229.63;5072051;28;20477;-50
2023/04/19 07:11:15;;;;;;;6.20;5.80;;;;;;;13.71;58.17;103235.28;5072213;28;20433;-43
2023/04/19 07:13:43;;;;;;;5.13;4.80;;;;;;;13.86;58.09;103230.19;5071940;28;20981;-50
2023/04/19 07:16:11;;;;;;;5.30;4.63;;;;;;;13.92;60.41;103216.13;5071484;28;20466;-52
2023/04/19 07:18:39;;;;;;;5.03;4.70;;;;;;;13.70;57.66;103222.91;5072018;28;20426;-50
2023/04/19 07:21:08;;;;;;;5.00;4.80;;;;;;;13.97;59.08;103221.03;5071740;28;20487;-49
2023/04/19 07:23:35;;;;;;;4.57;4.37;;;;;;;13.90;59.38;103215.47;5071825;28;20438;-48
2023/04/19 07:26:03;;;;;;;4.73;4.40;;;;;;;13.50;55.38;103220.56;5071305;28;20466;-49
2023/04/19 07:28:31;;;;;;;4.20;4.00;;;;;;;13.41;58.78;103229.53;5071792;28;20501;-51
2023/04/19 07:30:59;;;;;;;3.90;3.70;;;;;;;13.14;55.88;103235.81;5071971;28;20846;-48
2023/04/19 07:33:27;;;;;;;4.10;3.70;;;;;;;12.76;60.89;103216.31;5071408;28;20434;-48
2023/04/19 07:35:55;;;;;;;4.43;4.13;;;;;;;12.64;60.43;103214.00;5071199;28;20492;-47
2023/04/19 07:38:24;;;;;;;5.37;4.10;;;;;;;12.43;57.67;103210.72;5071395;28;20433;-48
2023/04/19 07:40:52;;;;;;;4.13;3.83;;;;;;;12.09;63.76;103205.97;5071829;28;20434;-46
2023/04/19 07:43:20;;;;;;;4.57;4.10;;;;;;;12.07;66.95;103223.97;5071436;28;20435;-44
2023/04/19 07:45:48;;;;;;;4.07;3.87;;;;;;;11.93;60.04;103211.09;5071003;28;20466;-48
2023/04/19 07:48:16;;;;;;;3.90;3.70;;;;;;;11.81;64.98;103222.94;5071366;28;20478;-47
2023/04/19 07:50:44;;;;;;;4.53;4.13;;;;;;;11.62;60.39;103199.72;5071786;28;20822;-49
2023/04/19 07:53:11;;;;;;;3.93;3.77;;;;;;;11.48;63.28;103205.53;5071568;28;20518;-49
2023/04/19 07:55:40;;;;;;;4.07;3.87;;;;;;;11.58;60.32;103209.03;5071047;28;20488;-48
2023/04/19 07:58:08;;;;;;;4.43;4.23;;;;;;;11.68;62.94;103188.47;5071479;28;20484;-49
2023/04/19 08:00:36;;;;;;;4.33;4.13;;;;;;;11.74;67.05;103199.63;5071674;28;20773;-52
2023/04/19 08:03:04;;;;;;;3.80;3.50;;;;;;;11.79;65.20;103186.66;5071333;28;20431;-44
2023/04/19 08:05:32;;;;;;;4.27;3.97;;;;;;;11.66;58.68;103195.78;5070935;28;20470;-48
2023/04/19 08:08:00;;;;;;;6.00;5.20;;;;;;;11.60;62.51;103196.38;5071306;28;20477;-51
2023/04/19 08:10:30;;;;;;;4.40;4.00;;;;;;;11.79;61.71;103194.66;5071381;28;20461;-48
2023/04/19 08:12:59;;;;;;;4.60;4.30;;;;;;;11.85;60.50;103186.91;5071555;28;20423;-49
2023/04/19 08:15:33;;;;;;;3.90;3.70;;;;;;;11.92;60.23;103198.69;5070434;28;20469;-51
2023/04/19 08:18:04;;;;;;;3.40;3.30;;;;;;;12.01;57.85;103200.50;5071591;28;20426;-45
2023/04/19 08:20:32;;;;;;;11.00;4.80;;;;;;;11.88;57.59;103181.28;5071493;28;20465;-48
2023/04/19 08:23:00;;;;;;;4.40;4.20;;;;;;;11.83;58.96;103207.59;5071164;28;20525;-48
2023/04/19 08:25:45;;;;;;;3.83;3.63;;;;;;;11.79;58.28;103183.97;5070493;28;20474;-45
2023/04/19 08:28:14;;;;;;;4.30;4.10;;;;;;;11.67;63.32;103207.31;5071509;28;20470;-49
2023/04/19 08:30:42;;;;;;;3.80;3.60;;;;;;;11.71;62.48;103184.69;5071457;28;20438;-49
2023/04/19 08:33:10;;;;;;;3.30;3.20;;;;;;;11.73;62.81;103165.84;5070965;28;20431;-44
2023/04/19 08:35:39;;;;;;;3.30;3.20;;;;;;;11.82;60.46;103178.34;5067979;28;20998;-46
2023/04/19 08:38:07;;;;;;;3.77;3.47;;;;;;;11.79;61.37;103168.78;5071143;28;20439;-49
2023/04/19 08:40:35;;;;;;;3.60;3.50;;;;;;;11.76;59.23;103169.06;5071008;28;20473;-51
2023/04/19 08:43:05;;;;;;;3.80;3.67;;;;;;;11.68;61.18;103159.06;5070830;28;20870;-48
2023/04/19 08:45:36;;;;;;;5.20;4.43;;;;;;;11.67;59.00;103159.22;5070466;28;20459;-51
2023/04/19 08:48:05;;;;;;;3.70;3.60;;;;;;;11.65;58.61;103162.03;5071110;28;20484;-45
2023/04/19 08:50:34;;;;;;;3.70;3.50;;;;;;;11.73;64.30;103152.47;5072179;28;21070;-52
2023/04/19 08:53:19;;;;;;;3.97;3.67;;;;;;;11.76;60.07;103184.25;5074300;28;20430;-49
2023/04/19 08:55:57;;;;;;;4.10;3.83;;;;;;;11.62;62.50;103145.44;5074126;28;20612;-48
2023/04/19 08:58:31;;;;;;;4.17;3.77;;;;;;;11.72;63.30;103142.75;5074696;28;20417;-47
2023/04/19 09:01:20;;;;;;;3.50;3.30;;;;;;;11.68;59.38;103171.56;5074469;28;20872;-45
2023/04/19 09:03:51;;;;;;;4.97;4.47;;;;;;;11.65;62.52;103156.69;5074439;28;20939;-46
2023/04/19 09:06:36;;;;;;;4.80;4.40;;;;;;;11.95;63.72;103144.06;5074514;28;20928;-50
2023/04/19 09:09:16;;;;;;;3.63;3.43;;;;;;;11.78;59.30;103148.38;5074183;28;20474;-48
2023/04/19 09:12:02;;;;;;;3.37;3.20;;;;;;;11.82;57.93;103160.47;5074299;28;20418;-46
2023/04/19 09:14:29;;;;;;;3.83;3.63;;;;;;;11.88;55.91;103143.84;5073958;28;20820;-50
2023/04/19 09:17:14;;;;;;;4.00;3.77;;;;;;;11.98;58.01;103123.22;5074239;28;20454;-48
2023/04/19 09:19:48;;;;;;;4.90;4.60;;;;;;;12.21;63.44;103118.34;5074307;28;20932;-44
2023/04/19 09:22:16;;;;;;;4.03;3.83;;;;;;;12.26;64.18;103110.69;5074029;28;20433;-51
2023/04/19 09:24:44;;;;;;;4.00;3.70;;;;;;;12.23;61.25;103147.59;5073794;28;20466;-44
2023/04/19 09:27:33;;;;;;;5.00;3.50;;;;;;;12.25;52.54;103097.47;5074158;28;20450;-53
2023/04/19 09:30:03;;;;;;;3.90;3.70;;;;;;;12.26;56.31;103123.22;5074010;28;20900;-49
2023/04/19 09:32:46;;;;;;;6.10;4.10;;;;;;;12.30;54.39;103113.94;5073640;28;20441;-51
2023/04/19 09:35:14;;;;;;;3.60;3.40;;;;;;;12.37;59.92;103110.47;5073523;28;20470;-44
2023/04/19 09:37:42;;;;;;;3.43;3.33;;;;;;;12.58;60.32;103119.06;5074049;28;20454;-50
2023/04/19 09:40:22;;;;;;;4.03;3.20;;;;;;;12.59;59.85;103094.00;5073831;28;20433;-51
2023/04/19 09:42:49;;;;;;;3.73;3.53;;;;;;;12.60;56.52;103094.84;5073581;28;20457;-46
2023/04/19 09:45:20;;;;;;;3.67;3.57;;;;;;;12.71;55.19;103089.25;5073524;28;20454;-47
2023/04/19 09:48:04;;;;;;;4.07;3.87;;;;;;;12.69;54.69;103092.06;5073764;28;20465;-43
2023/04/19 09:50:32;;;;;;;3.60;3.50;;;;;;;12.61;56.32;103099.19;5073673;28;20469;-44
2023/04/19 09:53:13;;;;;;;3.70;3.60;;;;;;;12.78;56.54;103101.03;5073210;28;20470;-51
2023/04/19 09:55:42;;;;;;;3.97;3.77;;;;;;;12.74;55.61;103105.84;5072973;28;20979;-43
2023/04/19 09:58:27;;;;;;;3.33;3.10;;;;;;;12.71;54.81;103081.22;5073608;28;20446;-45
2023/04/19 10:01:05;;;;;;;3.93;3.73;;;;;;;12.56;57.77;103088.09;5073344;28;20426;-48
2023/04/19 10:03:44;;;;;;;3.23;3.13;;;;;;;12.54;52.25;103071.38;5073274;28;20465;-49
2023/04/19 10:06:16;;;;;;;3.00;2.90;;;;;;;12.53;55.44;103075.88;5070598;28;20516;-48
2023/04/19 10:09:05;;;;;;;3.37;3.17;;;;;;;12.70;54.40;103060.78;5073515;28;20524;-45
2023/04/19 10:11:37;;;;;;;3.60;3.50;;;;;;;12.65;55.85;103076.47;5073034;28;20426;-48
2023/04/19 10:14:07;;;;;;;3.40;3.20;;;;;;;12.84;56.09;103068.28;5073016;28;20522;-51
2023/04/19 10:16:35;;;;;;;3.63;3.40;;;;;;;12.91;54.55;103052.41;5072999;28;20446;-46
2023/04/19 10:19:08;;;;;;;3.60;3.40;;;;;;;13.23;47.31;103055.38;5073254;28;20441;-52
2023/04/19 10:21:41;;;;;;;3.40;3.23;;;;;;;13.30;49.84;103030.47;5072894;28;20434;-48
2023/04/19 10:24:09;;;;;;;4.40;4.20;;;;;;;13.19;46.99;103044.13;5072731;28;20807;-49
2023/04/19 10:27:10;;;;;;;4.10;4.00;;;;;;;13.21;50.68;103050.16;5072711;28;20451;-45
2023/04/19 10:29:56;;;;;;;4.13;4.03;;;;;;;12.91;52.10;103057.78;5072942;28;20469;-45
2023/04/19 10:32:26;;;;;;;3.73;3.53;;;;;;;12.90;50.58;103029.34;5072492;28;20438;-48
2023/04/19 10:35:01;;;;;;;4.00;3.80;;;;;;;13.11;50.68;103027.97;5069139;28;20466;-50
2023/04/19 10:37:31;;;;;;;3.97;3.77;;;;;;;12.87;42.04;103046.56;5072405;28;20939;-47
2023/04/19 10:39:59;;;;;;;3.93;3.60;;;;;;;12.84;46.88;103021.91;5072562;28;20422;-47
2023/04/19 10:43:14;;;;;;;3.13;3.03;;;;;;;12.84;49.81;103043.34;5072462;28;20430;-47
2023/04/19 10:45:42;;;;;;;3.80;3.60;;;;;;;13.06;45.88;103016.03;5071937;28;20840;-47
2023/04/19 10:48:32;;;;;;;5.23;4.90;;;;;;;13.40;49.74;103013.44;5072693;28;20434;-45
2023/04/19 10:51:02;;;;;;;3.87;3.67;;;;;;;13.39;48.20;103043.91;5072221;28;20667;-47
2023/04/19 10:53:46;;;;;;;4.10;4.00;;;;;;;13.45;48.00;102997.69;5072170;28;20915;-45
2023/04/19 10:56:15;;;;;;;4.10;3.90;;;;;;;13.43;52.58;103005.91;5071627;28;20455;-51
2023/04/19 10:59:20;;;;;;;3.77;3.57;;;;;;;13.41;53.14;103005.22;5072384;28;20499;-48
2023/04/19 11:01:51;;;;;;;4.20;4.00;;;;;;;13.51;50.88;103003.25;5072045;28;20435;-47
2023/04/19 11:04:21;;;;;;;12.40;4.43;;;;;;;13.88;45.56;102994.00;5069437;28;20435;-49
2023/04/19 11:07:05;;;;;;;4.10;3.80;;;;;;;13.85;40.09;102987.97;5072185;28;20454;-47
2023/04/19 11:09:34;;;;;;;4.50;3.90;;;;;;;13.97;38.30;103001.91;5071992;28;20924;-47
2023/04/19 11:12:07;;;;;;;5.80;4.23;;;;;;;14.19;40.23;102979.81;5071810;28;20480;-49
2023/04/19 11:14:36;;;;;;;3.83;3.53;;;;;;;14.10;40.11;102977.25;5071118;28;20515;-53
2023/04/19 11:17:14;;;;;;;3.90;3.70;;;;;;;14.12;39.28;102989.53;5072137;28;20463;-51
2023/04/19 11:19:43;;;;;;;4.17;3.80;;;;;;;14.02;39.32;103006.78;5071974;28;20977;-45
2023/04/19 11:22:12;;;;;;;4.20;4.00;;;;;;;14.05;39.42;102985.81;5071837;28;20434;-47
2023/04/19 11:24:45;;;;;;;4.53;4.23;;;;;;;13.97;40.38;102985.81;5071444;28;20462;-48
2023/04/19 11:27:14;;;;;;;3.80;3.60;;;;;;;13.83;40.03;102997.16;5071786;28;20464;-50
2023/04/19 11:29:41;;;;;;;4.87;4.57;;;;;;;14.03;39.97;102976.28;5071879;28;20437;-48
2023/04/19 11:32:09;;;;;;;4.10;4.00;;;;;;;14.11;38.38;102979.81;5072058;28;20453;-49
2023/04/19 11:34:38;;;;;;;5.40;4.20;;;;;;;13.97;41.38;102988.50;5071444;28;20454;-45
2023/04/19 11:37:06;;;;;;;4.87;4.50;;;;;;;13.66;41.66;102988.25;5071677;28;20964;-50